Nearby METAR Reports

 

KPBI - West Palm Beach, Florida, USA
Distance from station: NNE 9mi, 14km
Updated: Sun, 19-May-2019 10:53pm EDT
Few Clouds
Few Clouds
 Wind from E
Wind: E 12 mph , 19 km/h
Temperature: 81°F , 27°C
Heat Index: 84°F , 29°C
Dew Point: 68°F , 20°C
Humidity: 66%
Barometer: 30.04 inHg , 1017.3 hPa
Clouds: Few Clouds
Visibility: 10 miles , 16 km
Cloud details: Few Clouds 2500 ft
2019/05/20 02:53 KPBI 200253Z 10010KT 10SM FEW025 27/20 A3004 RMK AO2 SLP171 T02670200 51015
KBCT - Boca Raton, Florida, USA
Distance from station: SSE 13mi, 21km
Updated: Sun, 19-May-2019 10:47pm EDT
Few Clouds
Few Clouds
 Wind from ESE
Wind: ESE 5 mph , 7 km/h
Temperature: 79°F , 26°C
Dew Point: 70°F , 21°C
Humidity: 74%
Barometer: 30.03 inHg , 1016.9 hPa
Clouds: Few Clouds
Visibility: 10 miles , 16 km
Cloud details: Few Clouds 3800 ft
2019/05/20 02:47 KBCT 200247Z 12004KT 10SM FEW038 26/21 A3003
 
KPMP - Pompano Beach, Florida, USA
Distance from station: S 22mi, 36km
Updated: Sun, 19-May-2019 10:53pm EDT
Clear
Clear
 Wind from ESE
Wind: ESE 9 mph , 15 km/h
Temperature: 81°F , 27°C
Heat Index: 85°F , 29°C
Dew Point: 70°F , 21°C
Humidity: 70%
Barometer: 30.03 inHg , 1016.9 hPa
Clouds: Clear
Visibility: 10 miles , 16 km
2019/05/20 02:53 KPMP 200253Z AUTO 11008KT 10SM CLR 27/21 A3003 RMK AO2 SLP169 T02670211 51016
KFXE - Ft Lauderd/Exec, Florida, USA
Distance from station: S 25mi, 41km
Updated: Sun, 19-May-2019 10:53pm EDT
Clear
Clear
 Wind from E
Wind: E 7 mph , 11 km/h
Temperature: 79°F , 26°C
Dew Point: 70°F , 21°C
Humidity: 74%
Barometer: 30.03 inHg , 1016.9 hPa
Clouds: Clear
Visibility: 10 miles , 16 km
2019/05/20 02:53 KFXE 200253Z 09006KT 10SM CLR 26/21 A3003 RMK AO2 SLP171 T02610211 51017
 
KFLL - Ft Lauderd/Holly, Florida, USA
Distance from station: S 35mi, 56km
Updated: Sun, 19-May-2019 10:53pm EDT
Few Clouds
Few Clouds
 Wind from ESE
Wind: ESE 9 mph , 15 km/h
Temperature: 81°F , 27°C
Heat Index: 85°F , 29°C
Dew Point: 72°F , 22°C
Humidity: 74%
Barometer: 30.02 inHg , 1016.6 hPa
Clouds: Few Clouds
Visibility: 10 miles , 16 km
Cloud details: Few Clouds 2200 ft
2019/05/20 02:53 KFLL 200253Z 11008KT 10SM FEW022 27/22 A3002 RMK AO2 SLP166 T02670217 51017
KHWO - Hollywood, Florida, USA
Distance from station: S 39mi, 64km
Updated: Sun, 19-May-2019 10:53pm EDT
Clear
Clear
 Wind from ESE
Wind: ESE 9 mph , 15 km/h
Temperature: 79°F , 26°C
Dew Point: 70°F , 21°C
Humidity: 74%
Barometer: 30.04 inHg , 1017.3 hPa
Clouds: Clear
Visibility: 10 miles , 16 km
2019/05/20 02:53 KHWO 200253Z AUTO 11008KT 10SM CLR 26/21 A3004 RMK AO2 SLP173 T02560206 51017 $
 
KSUA - Stuart/Witham, Florida, USA
Distance from station: N 43mi, 69km
Updated: Sun, 19-May-2019 10:55pm EDT
Clear
Clear
 Wind from ESE
Wind: ESE 8 mph , 13 km/h
Temperature: 77°F , 25°C
Dew Point: 68°F , 20°C
Humidity: 74%
Barometer: 30.05 inHg , 1017.6 hPa
Clouds: Clear
Visibility: 10 miles , 16 km
2019/05/20 02:55 KSUA 200255Z AUTO 12007KT 10SM CLR 25/20 A3005 RMK AO2
KOPF - Miami/Opa Locka, Florida, USA
Distance from station: S 46mi, 73km
Updated: Sun, 19-May-2019 1:53pm EDT
NOT Current
Clear
Clear
 Wind from ESE
Wind: ESE 9 mph , 15 km/h, Gust: 18 mph , 30 km/h
Temperature: 88°F , 31°C
Heat Index: 91°F , 33°C
Dew Point: 66°F , 19°C
Humidity: 49%
Barometer: 30.02 inHg , 1016.6 hPa
Clouds: Clear
Visibility: 10 miles , 16 km
2019/05/19 17:53 KOPF 191753Z 11008G16KT 10SM CLR 31/19 A3002 RMK AO2 SLP167 T03110189 10317 20239 58002
 
KMIA - Miami, Florida, USA
Distance from station: S 54mi, 86km
Updated: Sun, 19-May-2019 10:53pm EDT
Few Clouds
Few Clouds
 Wind from E
Wind: E 10 mph , 17 km/h
Temperature: 81°F , 27°C
Heat Index: 85°F , 29°C
Dew Point: 70°F , 21°C
Humidity: 70%
Barometer: 30.03 inHg , 1016.9 hPa
Clouds: Few Clouds
Visibility: 10 miles , 16 km
Cloud details: Few Clouds 2800 ft
2019/05/20 02:53 KMIA 200253Z 09009KT 10SM FEW028 27/21 A3003 RMK AO2 SLP169 T02720206 51018
KOBE - Okeechobee Cty, Florida, USA
Distance from station: NW 64mi, 104km
Updated: Sun, 19-May-2019 10:55pm EDT
Clear
Clear
 Wind from ESE
Wind: ESE 3 mph , 6 km/h
Temperature: 72°F , 22°C
Dew Point: 68°F , 20°C
Humidity: 88%
Barometer: 30.04 inHg , 1017.3 hPa
Clouds: Clear
Visibility: 10 miles , 16 km
2019/05/20 02:55 KOBE 200255Z AUTO 11003KT 10SM CLR 22/20 A3004 RMK AO2
 
KFPR - Fort Pierce, Florida, USA
Distance from station: NNW 66mi, 106km
Updated: Sun, 19-May-2019 10:53pm EDT
Few Clouds
Few Clouds
 Wind from ESE
Wind: ESE 10 mph , 17 km/h
Temperature: 79°F , 26°C
Dew Point: 70°F , 21°C
Humidity: 74%
Barometer: 30.04 inHg , 1017.3 hPa
Clouds: Few Clouds
Visibility: 10 miles , 16 km
Cloud details: Few Clouds 2500 ft
2019/05/20 02:53 KFPR 200253Z AUTO 12009KT 10SM FEW025 26/21 A3004 RMK AO2 SLP172 T02560206 53014
KTMB - Miami/Tamiami, Florida, USA
Distance from station: SSW 66mi, 106km
Updated: Sun, 19-May-2019 10:53pm EDT
Clear
Clear
 Wind from ENE
Wind: ENE 5 mph , 7 km/h
Temperature: 77°F , 25°C
Dew Point: 70°F , 21°C
Humidity: 79%
Barometer: 30.03 inHg , 1016.9 hPa
Clouds: Clear
Visibility: 10 miles , 16 km
2019/05/20 02:53 KTMB 200253Z 07004KT 10SM CLR 25/21 A3003 RMK AO2 SLP167 T02500206 51019
 
KVRB - Vero Beach, Florida, USA
Distance from station: NNW 76mi, 123km
Updated: Sun, 19-May-2019 10:53pm EDT
Clear
Clear
 Wind from ESE
Wind: ESE 13 mph , 20 km/h
Temperature: 79°F , 26°C
Dew Point: 70°F , 21°C
Humidity: 74%
Barometer: 30.04 inHg , 1017.3 hPa
Clouds: Clear
Visibility: 10 miles , 16 km
2019/05/20 02:53 KVRB 200253Z AUTO 11011KT 10SM CLR 26/21 A3004 RMK AO2 SLP171 T02560211 53014
KHST - Homestead Afb, Florida, USA
Distance from station: S 77mi, 124km
Updated: Sun, 19-May-2019 10:56pm EDT
Clear
Clear
 Wind from ENE
Wind: ENE 3 mph , 6 km/h
Temperature: 79°F , 26°C
Dew Point: 72°F , 22°C
Humidity: 79%
Barometer: 30.02 inHg , 1016.6 hPa
Clouds: Clear
Visibility: 10 miles , 16 km
2019/05/20 02:56 KHST 200256Z AUTO 06003KT 10SM CLR 26/22 A3002 RMK AO2 SLP169 T02580216 52018
 
KIMM - Immokalee, Florida, USA
Distance from station: W 77mi, 124km
Updated: Sun, 19-May-2019 10:55pm EDT
Mostly cloudy
Mostly cloudy
 Wind from calm
Wind: Calm
Temperature: 73°F , 23°C
Dew Point: 68°F , 20°C
Humidity: 83%
Barometer: 30.02 inHg , 1016.6 hPa
Clouds: Mostly cloudy
Visibility: 10 miles , 16 km
Cloud details: Mostly cloudy 11000 ft
2019/05/20 02:55 KIMM 200255Z AUTO 00000KT 10SM BKN110 23/20 A3002 RMK AO2
MYGF - Freeport Intl A, Bahamas
Distance from station: E 90mi, 145km
Updated: Sun, 19-May-2019 8:00pm EDT
NOT Current
Few Clouds
Few Clouds
 Wind from E
Wind: E 10 mph , 17 km/h
Temperature: 79°F , 26°C
Dew Point: 73°F , 23°C
Humidity: 84%
Barometer: 30.00 inHg , 1015.9 hPa
Clouds: Few Clouds
Visibility: 6 miles , 10 km
Cloud details: Few Clouds 1800 ft
2019/05/20 00:00 MYGF 200000Z 08009KT 9999 FEW018 26/23 A3000
 
KSEF - Sebring, Florida, USA
Distance from station: NW 95mi, 153km
Updated: Sun, 19-May-2019 10:55pm EDT
Clear
Clear
 Wind from E
Wind: E 6 mph , 9 km/h
Temperature: 73°F , 23°C
Dew Point: 68°F , 20°C
Humidity: 83%
Barometer: 30.04 inHg , 1017.3 hPa
Clouds: Clear
Visibility: 10 miles , 16 km
2019/05/20 02:55 KSEF 200255Z AUTO 09005KT 10SM CLR 23/20 A3004 RMK AO2 T02300204
KRSW - Fort Myers, Florida, USA
Distance from station: W 98mi, 158km
Updated: Sun, 19-May-2019 10:53pm EDT
Overcast
Overcast
 Wind from SSE
Wind: SSE 5 mph , 7 km/h
Temperature: 79°F , 26°C
Dew Point: 66°F , 19°C
Humidity: 65%
Barometer: 30.02 inHg , 1016.6 hPa
Clouds: Overcast
Visibility: 10 miles , 16 km
Cloud details: Overcast 9000 ft
2019/05/20 02:53 KRSW 200253Z 15004KT 10SM OVC090 26/19 A3002 RMK AO2 SLP163 T02560189 51023